Time;durP1;ratioP1;P1;durP2;ratioP2;P2;SDS_P1;SDS_P2;PMS_P1;PMS_P2;Temp;Humidity;BMP_temperature;BMP_pressure;BME280_temperature;BME280_humidity;BME280_pressure;Samples;Min_cycle;Max_cycle;Signal;HPM_P1;HPM_P2
2022/11/05 00:09:34;;;;;;;;;;;;;;;;;;4954135;28;19992;-57
2022/11/05 00:17:29;;;;;;;;;;;;;;;;;;4959332;28;20498;-57
2022/11/05 00:19:54;;;;;;;;;;;;;;;;;;4968849;28;19966;-57
2022/11/05 00:25:23;;;;;;;;;;;;;;;;;;5039411;28;19967;-56
2022/11/05 00:27:49;;;;;;;;;;;;;;;;;;4991952;28;20099;-57
2022/11/05 00:30:17;;;;;;;;;;;;;;;;;;4960927;28;20331;-57
2022/11/05 00:32:43;;;;;;;;;;;;;;;;;;4963105;28;20295;-57
2022/11/05 00:35:08;;;;;;;;;;;;;;;;;;4957860;28;19919;-57
2022/11/05 00:37:34;;;;;;;;;;;;;;;;;;4964693;28;19918;-57
2022/11/05 00:39:59;;;;;;;;;;;;;;;;;;4975602;28;19945;-57
2022/11/05 00:45:08;;;;;;;;;;;;;;;;;;4958378;28;19971;-57
2022/11/05 00:50:18;;;;;;;;;;;;;;;;;;4960546;28;19926;-56
2022/11/05 00:52:58;;;;;;;;;;;;;;;;;;4966899;28;19924;-57
2022/11/05 00:55:43;;;;;;;;;;;;;;;;;;4970791;28;20413;-56
2022/11/05 00:58:15;;;;;;;;;;;;;;;;;;4957876;28;20320;-57
2022/11/05 01:00:41;;;;;;;;;;;;;;;;;;4962825;28;19922;-57
2022/11/05 01:03:08;;;;;;;;;;;;;;;;;;4969001;28;20527;-57
2022/11/05 01:05:36;;;;;;;;;;;;;;;;;;4962542;28;19919;-57
2022/11/05 01:08:02;;;;;;;;;;;;;;;;;;4960784;28;20007;-57
2022/11/05 01:10:27;;;;;;;;;;;;;;;;;;4959319;28;19981;-57
2022/11/05 01:12:52;;;;;;;;;;;;;;;;;;4960084;28;19925;-57
2022/11/05 01:15:18;;;;;;;;;;;;;;;;;;4960504;28;20290;-57
2022/11/05 01:17:44;;;;;;;;;;;;;;;;;;4966639;28;20358;-57
2022/11/05 01:20:09;;;;;;;;;;;;;;;;;;4965926;28;19930;-57
2022/11/05 01:22:34;;;;;;;;;;;;;;;;;;4967564;28;19922;-57
2022/11/05 01:25:00;;;;;;;;;;;;;;;;;;4965768;28;20439;-57
2022/11/05 01:27:25;;;;;;;;;;;;;;;;;;4967375;28;19926;-57
2022/11/05 01:29:50;;;;;;;;;;;;;;;;;;4967489;28;20407;-57
2022/11/05 01:32:16;;;;;;;;;;;;;;;;;;4960186;28;19919;-57
2022/11/05 01:34:41;;;;;;;;;;;;;;;;;;4964294;28;19918;-57
2022/11/05 01:37:06;;;;;;;;;;;;;;;;;;4964422;28;19929;-57
2022/11/05 01:39:32;;;;;;;;;;;;;;;;;;4968708;28;19918;-57
2022/11/05 01:41:57;;;;;;;;;;;;;;;;;;4961348;28;19918;-58
2022/11/05 01:44:46;;;;;;;;;;;;;;;;;;4961244;28;20016;-58
2022/11/05 01:47:24;;;;;;;;;;;;;;;;;;4952790;28;20384;-58
2022/11/05 01:49:50;;;;;;;;;;;;;;;;;;4958764;28;19961;-58
2022/11/05 01:52:15;;;;;;;;;;;;;;;;;;4960377;28;19952;-58
2022/11/05 01:54:41;;;;;;;;;;;;;;;;;;4965013;28;19987;-58
2022/11/05 01:57:08;;;;;;;;;;;;;;;;;;4964768;28;19918;-58
2022/11/05 01:59:36;;;;;;;;;;;;;;;;;;4963655;28;20335;-57
2022/11/05 02:02:02;;;;;;;;;;;;;;;;;;4961602;28;20368;-57
2022/11/05 02:04:37;;;;;;;;;;;;;;;;;;4963626;28;20418;-56
2022/11/05 02:07:04;;;;;;;;;;;;;;;;;;4955874;28;19961;-59
2022/11/05 02:09:31;;;;;;;;;;;;;;;;;;4961921;28;20366;-55
2022/11/05 02:11:57;;;;;;;;;;;;;;;;;;4961258;28;19926;-56
2022/11/05 02:14:22;;;;;;;;;;;;;;;;;;4962090;28;19926;-57
2022/11/05 02:16:51;;;;;;;;;;;;;;;;;;4969022;28;19918;-56
2022/11/05 02:19:26;;;;;;;;;;;;;;;;;;4966007;28;19934;-57
2022/11/05 02:22:10;;;;;;;;;;;;;;;;;;4969831;28;19921;-56
2022/11/05 02:24:53;;;;;;;;;;;;;;;;;;4972287;28;19933;-57
2022/11/05 02:27:37;;;;;;;;;;;;;;;;;;4964310;28;19963;-56
2022/11/05 02:30:22;;;;;;;;;;;;;;;;;;4961450;28;19933;-57
2022/11/05 02:32:53;;;;;;;;;;;;;;;;;;4971500;28;19918;-57
2022/11/05 02:35:21;;;;;;;;;;;;;;;;;;4973042;28;19925;-57
2022/11/05 02:37:54;;;;;;;;;;;;;;;;;;4971756;28;19919;-57
2022/11/05 02:40:35;;;;;;;;;;;;;;;;;;4966382;28;19918;-57
2022/11/05 02:43:07;;;;;;;;;;;;;;;;;;4965416;28;19925;-57
2022/11/05 02:45:32;;;;;;;;;;;;;;;;;;4968089;28;19924;-58
2022/11/05 02:48:04;;;;;;;;;;;;;;;;;;4958006;28;20412;-58
2022/11/05 02:50:32;;;;;;;;;;;;;;;;;;4970773;28;19963;-57
2022/11/05 02:53:00;;;;;;;;;;;;;;;;;;4965249;28;19926;-58
2022/11/05 02:55:28;;;;;;;;;;;;;;;;;;4960900;28;19971;-57
2022/11/05 02:57:54;;;;;;;;;;;;;;;;;;4968325;28;19926;-57
2022/11/05 03:00:38;;;;;;;;;;;;;;;;;;4959838;28;19987;-57
2022/11/05 03:03:04;;;;;;;;;;;;;;;;;;4957320;28;20340;-57
2022/11/05 03:05:35;;;;;;;;;;;;;;;;;;4962977;28;19918;-56
2022/11/05 03:08:05;;;;;;;;;;;;;;;;;;4958455;28;20013;-56
2022/11/05 03:10:57;;;;;;;;;;;;;;;;;;4961761;28;19968;-56
2022/11/05 03:13:32;;;;;;;;;;;;;;;;;;4960389;28;19918;-57
2022/11/05 03:16:11;;;;;;;;;;;;;;;;;;4961213;28;19925;-56
2022/11/05 03:18:39;;;;;;;;;;;;;;;;;;4965593;28;20376;-57
2022/11/05 03:21:07;;;;;;;;;;;;;;;;;;4960606;28;20053;-57
2022/11/05 03:23:53;;;;;;;;;;;;;;;;;;4963436;28;20462;-57
2022/11/05 03:26:22;;;;;;;;;;;;;;;;;;4958852;28;20402;-56
2022/11/05 03:28:53;;;;;;;;;;;;;;;;;;4970576;28;19966;-57
2022/11/05 03:31:19;;;;;;;;;;;;;;;;;;4964970;28;19918;-58
2022/11/05 03:33:45;;;;;;;;;;;;;;;;;;4966467;28;19918;-57
2022/11/05 03:36:14;;;;;;;;;;;;;;;;;;4970118;28;19922;-57
2022/11/05 03:38:41;;;;;;;;;;;;;;;;;;4966650;28;19919;-56
2022/11/05 03:41:09;;;;;;;;;;;;;;;;;;4961404;28;19942;-57
2022/11/05 03:43:36;;;;;;;;;;;;;;;;;;4961597;28;19925;-56
2022/11/05 03:46:04;;;;;;;;;;;;;;;;;;4957284;28;19918;-57
2022/11/05 03:48:30;;;;;;;;;;;;;;;;;;4955373;28;19930;-57
2022/11/05 03:50:55;;;;;;;;;;;;;;;;;;4956386;28;20005;-57
2022/11/05 03:53:26;;;;;;;;;;;;;;;;;;4959096;28;19980;-57
2022/11/05 03:56:02;;;;;;;;;;;;;;;;;;4956025;28;19923;-57
2022/11/05 03:58:28;;;;;;;;;;;;;;;;;;4959941;28;19944;-56
2022/11/05 04:00:53;;;;;;;;;;;;;;;;;;4968975;28;19922;-56
2022/11/05 04:03:18;;;;;;;;;;;;;;;;;;4959295;28;19926;-58
2022/11/05 04:13:22;;;;;;;;;;;;;;;;;;4955665;28;19918;-59
2022/11/05 04:13:57;;;;;;;;;;;;;;;;;;4968137;28;19938;-58
2022/11/05 04:19:06;;;;;;;;;;;;;;;;;;4960434;28;19941;-57
2022/11/05 04:24:15;;;;;;;;;;;;;;;;;;4959846;28;19943;-60
2022/11/05 04:26:42;;;;;;;;;;;;;;;;;;4966393;28;19922;-58
2022/11/05 04:31:51;;;;;;;;;;;;;;;;;;4961627;28;19929;-57
2022/11/05 04:34:17;;;;;;;;;;;;;;;;;;4963735;28;19918;-58
2022/11/05 04:36:43;;;;;;;;;;;;;;;;;;4956865;28;19926;-58
2022/11/05 04:39:09;;;;;;;;;;;;;;;;;;4968040;28;19918;-58
2022/11/05 04:41:34;;;;;;;;;;;;;;;;;;4957324;28;19926;-57
2022/11/05 04:43:59;;;;;;;;;;;;;;;;;;4965842;28;20483;-59
2022/11/05 04:46:24;;;;;;;;;;;;;;;;;;4974632;28;19971;-58
2022/11/05 04:48:50;;;;;;;;;;;;;;;;;;4972114;28;19936;-58
2022/11/05 04:51:15;;;;;;;;;;;;;;;;;;4965322;28;19918;-59
2022/11/05 04:53:41;;;;;;;;;;;;;;;;;;4964392;28;19918;-58
2022/11/05 04:56:09;;;;;;;;;;;;;;;;;;4965255;28;19925;-58
2022/11/05 04:58:37;;;;;;;;;;;;;;;;;;4966294;28;19969;-58
2022/11/05 05:01:02;;;;;;;;;;;;;;;;;;4964983;28;19918;-58
2022/11/05 05:03:28;;;;;;;;;;;;;;;;;;4963080;28;19918;-58
2022/11/05 05:05:53;;;;;;;;;;;;;;;;;;4959246;28;20422;-58
2022/11/05 05:08:18;;;;;;;;;;;;;;;;;;4978083;28;19984;-58
2022/11/05 05:10:43;;;;;;;;;;;;;;;;;;4981961;28;19952;-57
2022/11/05 05:13:10;;;;;;;;;;;;;;;;;;4971757;28;19919;-60
2022/11/05 05:15:36;;;;;;;;;;;;;;;;;;4967926;28;19958;-59
2022/11/05 05:18:01;;;;;;;;;;;;;;;;;;4970893;28;19983;-59
2022/11/05 05:23:10;;;;;;;;;;;;;;;;;;4962269;28;20418;-59
2022/11/05 05:25:36;;;;;;;;;;;;;;;;;;4966282;28;19914;-59
2022/11/05 05:28:01;;;;;;;;;;;;;;;;;;4972761;28;19922;-58
2022/11/05 05:30:26;;;;;;;;;;;;;;;;;;4967108;28;19936;-58
2022/11/05 05:32:51;;;;;;;;;;;;;;;;;;4967597;28;19922;-58
2022/11/05 05:35:17;;;;;;;;;;;;;;;;;;4965033;28;19975;-59
2022/11/05 05:37:43;;;;;;;;;;;;;;;;;;4967242;28;19921;-60
2022/11/05 05:40:08;;;;;;;;;;;;;;;;;;4965125;28;19961;-60
2022/11/05 05:42:34;;;;;;;;;;;;;;;;;;4961469;28;19918;-60
2022/11/05 05:44:59;;;;;;;;;;;;;;;;;;4972576;28;19918;-59
2022/11/05 05:47:24;;;;;;;;;;;;;;;;;;4972076;28;20435;-60
2022/11/05 05:49:49;;;;;;;;;;;;;;;;;;4973358;28;19926;-60
2022/11/05 05:52:15;;;;;;;;;;;;;;;;;;4970326;28;19918;-60
2022/11/05 05:54:40;;;;;;;;;;;;;;;;;;4971502;28;19922;-60
2022/11/05 05:57:05;;;;;;;;;;;;;;;;;;4974679;28;20467;-59
2022/11/05 05:59:31;;;;;;;;;;;;;;;;;;4974256;28;19922;-60
2022/11/05 06:01:56;;;;;;;;;;;;;;;;;;4973156;28;20022;-59
2022/11/05 06:04:21;;;;;;;;;;;;;;;;;;4961550;28;19925;-60
2022/11/05 06:06:47;;;;;;;;;;;;;;;;;;4963505;28;20005;-62
2022/11/05 06:09:12;;;;;;;;;;;;;;;;;;4960339;28;19961;-61
2022/11/05 06:11:38;;;;;;;;;;;;;;;;;;4960979;28;19918;-61
2022/11/05 06:14:03;;;;;;;;;;;;;;;;;;4971451;28;19922;-61
2022/11/05 06:16:33;;;;;;;;;;;;;;;;;;4967346;28;19922;-61
2022/11/05 06:18:58;;;;;;;;;;;;;;;;;;4976313;28;19918;-61
2022/11/05 06:21:23;;;;;;;;;;;;;;;;;;4965541;28;19924;-61
2022/11/05 06:23:49;;;;;;;;;;;;;;;;;;4964888;28;20305;-61
2022/11/05 06:26:15;;;;;;;;;;;;;;;;;;4973391;28;19922;-61
2022/11/05 06:28:41;;;;;;;;;;;;;;;;;;4969477;28;20581;-62
2022/11/05 06:31:07;;;;;;;;;;;;;;;;;;4967075;28;19925;-61
2022/11/05 06:33:32;;;;;;;;;;;;;;;;;;4963744;28;19918;-61
2022/11/05 06:35:57;;;;;;;;;;;;;;;;;;4964798;28;19949;-61
2022/11/05 06:38:23;;;;;;;;;;;;;;;;;;4967004;28;19926;-61
2022/11/05 06:40:48;;;;;;;;;;;;;;;;;;4966951;28;19925;-62
2022/11/05 06:43:13;;;;;;;;;;;;;;;;;;4966363;28;19917;-58
2022/11/05 06:45:39;;;;;;;;;;;;;;;;;;4966671;28;19961;-62
2022/11/05 06:48:04;;;;;;;;;;;;;;;;;;4958559;28;19938;-62
2022/11/05 06:50:29;;;;;;;;;;;;;;;;;;4963985;28;19971;-61
2022/11/05 06:52:59;;;;;;;;;;;;;;;;;;4970257;28;19956;-61
2022/11/05 06:55:26;;;;;;;;;;;;;;;;;;4972341;28;20034;-61
2022/11/05 06:57:52;;;;;;;;;;;;;;;;;;4964312;28;19918;-61
2022/11/05 07:00:18;;;;;;;;;;;;;;;;;;4968178;28;20001;-61
2022/11/05 07:02:43;;;;;;;;;;;;;;;;;;4970438;28;19925;-61
2022/11/05 07:05:10;;;;;;;;;;;;;;;;;;4961988;28;19918;-61
2022/11/05 07:07:44;;;;;;;;;;;;;;;;;;4966276;28;19931;-60
2022/11/05 07:10:10;;;;;;;;;;;;;;;;;;4965480;28;20013;-60
2022/11/05 07:12:36;;;;;;;;;;;;;;;;;;4961448;28;19927;-61
2022/11/05 07:15:02;;;;;;;;;;;;;;;;;;4963073;28;19918;-61
2022/11/05 07:17:27;;;;;;;;;;;;;;;;;;4970256;28;20422;-62
2022/11/05 07:19:52;;;;;;;;;;;;;;;;;;4965647;28;19941;-61
2022/11/05 07:22:17;;;;;;;;;;;;;;;;;;4968241;28;20123;-61
2022/11/05 07:24:46;;;;;;;;;;;;;;;;;;4963531;28;19964;-63
2022/11/05 07:27:11;;;;;;;;;;;;;;;;;;4970132;28;20128;-61
2022/11/05 07:29:36;;;;;;;;;;;;;;;;;;4962305;28;20034;-64
2022/11/05 07:32:02;;;;;;;;;;;;;;;;;;4969876;28;20346;-64
2022/11/05 07:34:27;;;;;;;;;;;;;;;;;;4954941;28;19929;-62
2022/11/05 07:36:52;;;;;;;;;;;;;;;;;;4967840;28;19918;-62
2022/11/05 07:39:18;;;;;;;;;;;;;;;;;;4964257;28;19972;-61
2022/11/05 07:41:43;;;;;;;;;;;;;;;;;;4972589;28;19945;-62
2022/11/05 07:44:09;;;;;;;;;;;;;;;;;;4968712;28;20127;-63
2022/11/05 07:46:34;;;;;;;;;;;;;;;;;;4972343;28;19919;-62
2022/11/05 07:48:59;;;;;;;;;;;;;;;;;;4967766;28;19976;-61
2022/11/05 07:51:24;;;;;;;;;;;;;;;;;;4961733;28;19924;-64
2022/11/05 07:53:50;;;;;;;;;;;;;;;;;;4970817;28;20013;-61
2022/11/05 07:56:15;;;;;;;;;;;;;;;;;;4975785;28;20275;-63
2022/11/05 07:58:40;;;;;;;;;;;;;;;;;;4973763;28;19922;-61
2022/11/05 08:01:06;;;;;;;;;;;;;;;;;;4975340;28;20356;-63
2022/11/05 08:03:31;;;;;;;;;;;;;;;;;;4961064;28;19922;-63
2022/11/05 08:05:56;;;;;;;;;;;;;;;;;;4961822;28;19926;-62
2022/11/05 08:08:22;;;;;;;;;;;;;;;;;;4964279;28;19969;-63
2022/11/05 08:10:47;;;;;;;;;;;;;;;;;;4967537;28;20394;-63
2022/11/05 08:13:13;;;;;;;;;;;;;;;;;;4969068;28;20000;-62
2022/11/05 08:15:38;;;;;;;;;;;;;;;;;;4962396;28;19925;-63
2022/11/05 08:18:05;;;;;;;;;;;;;;;;;;4965801;28;20355;-61
2022/11/05 08:20:30;;;;;;;;;;;;;;;;;;4967758;28;19919;-61
2022/11/05 08:22:56;;;;;;;;;;;;;;;;;;4961644;28;20306;-61
2022/11/05 08:25:21;;;;;;;;;;;;;;;;;;4956610;28;19922;-61
2022/11/05 08:27:53;;;;;;;;;;;;;;;;;;4964184;28;20001;-60
2022/11/05 08:30:18;;;;;;;;;;;;;;;;;;4964013;28;19919;-60
2022/11/05 08:32:44;;;;;;;;;;;;;;;;;;4962608;28;20285;-60
2022/11/05 08:35:09;;;;;;;;;;;;;;;;;;4958373;28;19919;-61
2022/11/05 08:37:34;;;;;;;;;;;;;;;;;;4974537;28;19922;-61
2022/11/05 08:39:59;;;;;;;;;;;;;;;;;;4970741;28;19926;-61
2022/11/05 08:42:25;;;;;;;;;;;;;;;;;;4966538;28;19918;-61
2022/11/05 08:44:50;;;;;;;;;;;;;;;;;;4965996;28;19918;-61
2022/11/05 08:47:15;;;;;;;;;;;;;;;;;;4965844;28;19918;-61
2022/11/05 08:49:40;;;;;;;;;;;;;;;;;;4967975;28;20431;-61
2022/11/05 08:52:06;;;;;;;;;;;;;;;;;;4965412;28;20345;-61
2022/11/05 08:54:31;;;;;;;;;;;;;;;;;;4964635;28;19918;-61
2022/11/05 08:56:56;;;;;;;;;;;;;;;;;;4979395;28;19915;-62
2022/11/05 08:59:21;;;;;;;;;;;;;;;;;;4967030;28;19969;-61
2022/11/05 09:01:49;;;;;;;;;;;;;;;;;;4968574;28;20586;-60
2022/11/05 09:04:14;;;;;;;;;;;;;;;;;;4966107;28;19925;-61
2022/11/05 09:06:39;;;;;;;;;;;;;;;;;;4967524;28;19927;-61
2022/11/05 09:09:05;;;;;;;;;;;;;;;;;;4986800;28;19967;-61
2022/11/05 09:11:30;;;;;;;;;;;;;;;;;;4961665;28;19926;-61
2022/11/05 09:13:55;;;;;;;;;;;;;;;;;;4966987;28;19925;-61
2022/11/05 09:16:21;;;;;;;;;;;;;;;;;;4966430;28;20372;-61
2022/11/05 09:18:48;;;;;;;;;;;;;;;;;;4967399;28;19940;-60
2022/11/05 09:21:13;;;;;;;;;;;;;;;;;;4968277;28;19918;-60
2022/11/05 09:23:38;;;;;;;;;;;;;;;;;;4965623;28;19944;-59
2022/11/05 09:26:04;;;;;;;;;;;;;;;;;;4969406;28;20326;-60
2022/11/05 09:28:31;;;;;;;;;;;;;;;;;;4968096;28;19930;-62
2022/11/05 09:30:56;;;;;;;;;;;;;;;;;;4971187;28;19945;-61
2022/11/05 09:33:23;;;;;;;;;;;;;;;;;;4968016;28;19957;-60
2022/11/05 09:35:48;;;;;;;;;;;;;;;;;;4966573;28;19925;-60
2022/11/05 09:38:13;;;;;;;;;;;;;;;;;;4968268;28;19923;-60
2022/11/05 09:40:46;;;;;;;;;;;;;;;;;;4967472;28;20437;-60
2022/11/05 09:43:19;;;;;;;;;;;;;;;;;;4961040;28;19922;-60
2022/11/05 09:45:47;;;;;;;;;;;;;;;;;;4966824;28;20346;-60
2022/11/05 09:48:14;;;;;;;;;;;;;;;;;;4962490;28;19926;-60
2022/11/05 09:50:43;;;;;;;;;;;;;;;;;;4967194;28;20405;-59
2022/11/05 09:53:11;;;;;;;;;;;;;;;;;;4973640;28;20406;-60
2022/11/05 09:55:38;;;;;;;;;;;;;;;;;;4966267;28;19918;-60
2022/11/05 09:58:14;;;;;;;;;;;;;;;;;;4969577;28;19918;-60
2022/11/05 10:00:40;;;;;;;;;;;;;;;;;;4974227;28;19918;-60
2022/11/05 10:03:06;;;;;;;;;;;;;;;;;;4970302;28;19918;-59
2022/11/05 10:05:33;;;;;;;;;;;;;;;;;;4970087;28;19929;-60
2022/11/05 10:08:02;;;;;;;;;;;;;;;;;;4973297;28;20291;-59
2022/11/05 10:10:44;;;;;;;;;;;;;;;;;;4972616;28;19918;-60
2022/11/05 10:13:17;;;;;;;;;;;;;;;;;;4968627;28;19951;-59
2022/11/05 10:15:47;;;;;;;;;;;;;;;;;;4966826;28;19918;-60
2022/11/05 10:18:20;;;;;;;;;;;;;;;;;;4965271;28;19922;-59
2022/11/05 10:20:45;;;;;;;;;;;;;;;;;;4978348;28;20010;-59
2022/11/05 10:23:12;;;;;;;;;;;;;;;;;;4968478;28;19984;-59
2022/11/05 10:25:39;;;;;;;;;;;;;;;;;;4975505;28;19937;-59
2022/11/05 10:28:05;;;;;;;;;;;;;;;;;;4969237;28;19922;-59
2022/11/05 10:30:31;;;;;;;;;;;;;;;;;;4968257;28;19988;-58
2022/11/05 10:32:58;;;;;;;;;;;;;;;;;;4965808;28;19952;-58
2022/11/05 10:35:25;;;;;;;;;;;;;;;;;;4962391;28;19918;-58
2022/11/05 10:37:52;;;;;;;;;;;;;;;;;;4957604;28;19971;-58
2022/11/05 10:40:36;;;;;;;;;;;;;;;;;;4964284;28;19950;-58
2022/11/05 10:43:13;;;;;;;;;;;;;;;;;;4959187;28;20009;-58
2022/11/05 10:45:47;;;;;;;;;;;;;;;;;;4972104;28;20303;-58
2022/11/05 10:48:24;;;;;;;;;;;;;;;;;;4975051;28;20067;-57
2022/11/05 10:50:49;;;;;;;;;;;;;;;;;;4964926;28;20276;-58
2022/11/05 10:53:17;;;;;;;;;;;;;;;;;;4971231;28;19924;-58
2022/11/05 10:55:46;;;;;;;;;;;;;;;;;;4972325;28;19929;-59
2022/11/05 10:58:14;;;;;;;;;;;;;;;;;;4972979;28;20410;-58
2022/11/05 11:00:41;;;;;;;;;;;;;;;;;;4973122;28;20004;-58
2022/11/05 11:03:25;;;;;;;;;;;;;;;;;;4990338;28;19918;-58
2022/11/05 11:05:56;;;;;;;;;;;;;;;;;;4962888;28;19993;-58
2022/11/05 11:08:23;;;;;;;;;;;;;;;;;;4959364;28;19977;-59
2022/11/05 11:10:50;;;;;;;;;;;;;;;;;;4970401;28;19922;-57
2022/11/05 11:13:21;;;;;;;;;;;;;;;;;;4988579;28;19970;-58
2022/11/05 11:15:49;;;;;;;;;;;;;;;;;;4969562;28;19926;-58
2022/11/05 11:18:28;;;;;;;;;;;;;;;;;;4983958;28;20357;-58
2022/11/05 11:21:04;;;;;;;;;;;;;;;;;;4968545;28;19926;-58
2022/11/05 11:23:34;;;;;;;;;;;;;;;;;;4965576;28;20294;-58
2022/11/05 11:26:00;;;;;;;;;;;;;;;;;;4958739;28;19918;-58
2022/11/05 11:28:42;;;;;;;;;;;;;;;;;;4971957;28;19918;-58
2022/11/05 11:31:12;;;;;;;;;;;;;;;;;;4967426;28;19929;-59
2022/11/05 11:33:39;;;;;;;;;;;;;;;;;;4964518;28;19941;-58
2022/11/05 11:36:05;;;;;;;;;;;;;;;;;;4968884;28;19926;-59
2022/11/05 11:38:32;;;;;;;;;;;;;;;;;;4953566;28;19918;-59
2022/11/05 11:41:10;;;;;;;;;;;;;;;;;;4956797;28;20384;-59
2022/11/05 11:43:38;;;;;;;;;;;;;;;;;;4961191;28;20444;-58
2022/11/05 11:46:04;;;;;;;;;;;;;;;;;;4961667;28;19925;-59
2022/11/05 11:48:33;;;;;;;;;;;;;;;;;;4958929;28;19958;-58
2022/11/05 11:50:58;;;;;;;;;;;;;;;;;;4965691;28;20423;-58
2022/11/05 11:53:23;;;;;;;;;;;;;;;;;;4961974;28;19914;-58
2022/11/05 11:55:55;;;;;;;;;;;;;;;;;;4963546;28;20012;-58
2022/11/05 11:58:21;;;;;;;;;;;;;;;;;;4960534;28;20266;-58
2022/11/05 12:00:49;;;;;;;;;;;;;;;;;;4966445;28;19926;-58
2022/11/05 12:03:14;;;;;;;;;;;;;;;;;;4958928;28;19918;-57
2022/11/05 12:05:40;;;;;;;;;;;;;;;;;;4963000;28;19941;-60
2022/11/05 12:08:24;;;;;;;;;;;;;;;;;;4968092;28;20339;-60
2022/11/05 12:10:56;;;;;;;;;;;;;;;;;;4961015;28;19922;-58
2022/11/05 12:13:21;;;;;;;;;;;;;;;;;;4957083;28;20307;-59
2022/11/05 12:15:52;;;;;;;;;;;;;;;;;;4957127;28;19923;-59
2022/11/05 12:18:29;;;;;;;;;;;;;;;;;;4958050;28;20016;-59
2022/11/05 12:20:55;;;;;;;;;;;;;;;;;;4963756;28;20304;-59
2022/11/05 12:23:20;;;;;;;;;;;;;;;;;;4967550;28;19918;-59
2022/11/05 12:25:54;;;;;;;;;;;;;;;;;;4964307;28;19918;-58
2022/11/05 12:28:49;;;;;;;;;;;;;;;;;;4962526;28;20315;-60
2022/11/05 12:31:23;;;;;;;;;;;;;;;;;;4960251;28;20056;-60
2022/11/05 12:33:54;;;;;;;;;;;;;;;;;;4967166;28;20411;-61
2022/11/05 12:36:20;;;;;;;;;;;;;;;;;;4961381;28;19918;-61
2022/11/05 12:38:57;;;;;;;;;;;;;;;;;;4968298;28;19918;-61
2022/11/05 12:41:41;;;;;;;;;;;;;;;;;;4952288;28;20559;-61
2022/11/05 12:44:30;;;;;;;;;;;;;;;;;;4958068;28;20025;-61
2022/11/05 12:47:01;;;;;;;;;;;;;;;;;;4959536;28;20029;-61
2022/11/05 12:49:45;;;;;;;;;;;;;;;;;;4953117;28;19926;-61
2022/11/05 12:52:31;;;;;;;;;;;;;;;;;;4956780;28;19965;-61
2022/11/05 12:55:05;;;;;;;;;;;;;;;;;;4958552;28;19926;-61
2022/11/05 12:57:31;;;;;;;;;;;;;;;;;;4957431;28;19926;-61
2022/11/05 13:00:02;;;;;;;;;;;;;;;;;;4981242;28;19917;-61
2022/11/05 13:02:34;;;;;;;;;;;;;;;;;;4954403;28;19918;-61
2022/11/05 13:05:02;;;;;;;;;;;;;;;;;;4955135;28;19971;-62
2022/11/05 13:07:37;;;;;;;;;;;;;;;;;;4963047;28;19961;-60
2022/11/05 13:10:12;;;;;;;;;;;;;;;;;;4962150;28;20291;-61
2022/11/05 13:12:38;;;;;;;;;;;;;;;;;;4967654;28;19918;-61
2022/11/05 13:15:13;;;;;;;;;;;;;;;;;;4967988;28;20005;-61
2022/11/05 13:17:48;;;;;;;;;;;;;;;;;;4964789;28;19924;-61
2022/11/05 13:20:16;;;;;;;;;;;;;;;;;;4973488;28;19918;-61
2022/11/05 13:22:43;;;;;;;;;;;;;;;;;;4969076;28;19922;-61
2022/11/05 13:25:16;;;;;;;;;;;;;;;;;;4969701;28;20310;-61
2022/11/05 13:27:47;;;;;;;;;;;;;;;;;;4966290;28;20415;-60
2022/11/05 13:30:15;;;;;;;;;;;;;;;;;;4967286;28;19925;-60
2022/11/05 13:32:43;;;;;;;;;;;;;;;;;;4973244;28;19971;-61
2022/11/05 13:35:23;;;;;;;;;;;;;;;;;;4971235;28;19929;-60
2022/11/05 13:40:50;;;;;;;;;;;;;;;;;;4975604;28;20325;-60
2022/11/05 13:43:16;;;;;;;;;;;;;;;;;;4973929;28;19922;-60
2022/11/05 13:45:47;;;;;;;;;;;;;;;;;;4969617;28;19968;-60
2022/11/05 13:48:12;;;;;;;;;;;;;;;;;;4969288;28;19929;-61
2022/11/05 13:50:40;;;;;;;;;;;;;;;;;;4966196;28;19993;-60
2022/11/05 13:53:24;;;;;;;;;;;;;;;;;;4967008;28;20548;-60
2022/11/05 13:55:56;;;;;;;;;;;;;;;;;;4970428;28;19918;-60
2022/11/05 13:58:21;;;;;;;;;;;;;;;;;;4962398;28;19983;-60
2022/11/05 14:00:58;;;;;;;;;;;;;;;;;;4962378;28;19926;-60
2022/11/05 14:03:23;;;;;;;;;;;;;;;;;;4962692;28;19950;-61
2022/11/05 14:06:01;;;;;;;;;;;;;;;;;;4977890;28;20002;-60
2022/11/05 14:08:27;;;;;;;;;;;;;;;;;;4965056;28;20468;-60
2022/11/05 14:11:01;;;;;;;;;;;;;;;;;;4968752;28;19936;-60
2022/11/05 14:13:30;;;;;;;;;;;;;;;;;;4965795;28;19918;-60
2022/11/05 14:16:02;;;;;;;;;;;;;;;;;;4969354;28;19999;-60
2022/11/05 14:18:35;;;;;;;;;;;;;;;;;;4964569;28;19918;-60
2022/11/05 14:21:02;;;;;;;;;;;;;;;;;;4963341;28;19922;-60
2022/11/05 14:23:47;;;;;;;;;;;;;;;;;;4962799;28;19918;-61
2022/11/05 14:26:22;;;;;;;;;;;;;;;;;;4969121;28;19976;-60
2022/11/05 14:29:18;;;;;;;;;;;;;;;;;;4973149;28;20291;-60
2022/11/05 14:31:50;;;;;;;;;;;;;;;;;;4979398;28;20004;-60
2022/11/05 14:34:18;;;;;;;;;;;;;;;;;;4962889;28;20344;-59
2022/11/05 14:37:02;;;;;;;;;;;;;;;;;;4967935;28;19926;-60
2022/11/05 14:39:28;;;;;;;;;;;;;;;;;;4968090;28;19919;-59
2022/11/05 14:41:55;;;;;;;;;;;;;;;;;;4968179;28;19948;-59
2022/11/05 14:44:21;;;;;;;;;;;;;;;;;;4963447;28;20004;-59
2022/11/05 14:46:48;;;;;;;;;;;;;;;;;;4960835;28;19972;-59
2022/11/05 14:49:19;;;;;;;;;;;;;;;;;;4961526;28;19954;-60
2022/11/05 14:51:47;;;;;;;;;;;;;;;;;;4962881;28;19937;-60
2022/11/05 14:54:23;;;;;;;;;;;;;;;;;;4967035;28;20415;-60
2022/11/05 14:56:51;;;;;;;;;;;;;;;;;;4961648;28;20609;-60
2022/11/05 14:59:22;;;;;;;;;;;;;;;;;;4960365;28;20442;-60
2022/11/05 15:01:47;;;;;;;;;;;;;;;;;;4962903;28;19926;-60
2022/11/05 15:04:27;;;;;;;;;;;;;;;;;;4968740;28;19922;-60
2022/11/05 15:07:01;;;;;;;;;;;;;;;;;;4963409;28;19961;-60
2022/11/05 15:09:45;;;;;;;;;;;;;;;;;;4964184;28;20403;-60
2022/11/05 15:12:14;;;;;;;;;;;;;;;;;;4959279;28;20376;-59
2022/11/05 15:14:50;;;;;;;;;;;;;;;;;;4958204;28;19919;-58
2022/11/05 15:17:19;;;;;;;;;;;;;;;;;;4964932;28;19991;-58
2022/11/05 15:19:45;;;;;;;;;;;;;;;;;;4964547;28;20045;-58
2022/11/05 15:22:18;;;;;;;;;;;;;;;;;;4963971;28;19919;-59
2022/11/05 15:24:45;;;;;;;;;;;;;;;;;;4959359;28;19915;-59
2022/11/05 15:27:17;;;;;;;;;;;;;;;;;;4960699;28;19922;-59
2022/11/05 15:29:42;;;;;;;;;;;;;;;;;;4964089;28;19965;-59
2022/11/05 15:32:26;;;;;;;;;;;;;;;;;;4958953;28;19922;-59
2022/11/05 15:34:53;;;;;;;;;;;;;;;;;;4964635;28;19958;-60
2022/11/05 15:37:20;;;;;;;;;;;;;;;;;;4964281;28;20288;-60
2022/11/05 15:39:47;;;;;;;;;;;;;;;;;;4959445;28;19918;-60
2022/11/05 15:42:21;;;;;;;;;;;;;;;;;;4959084;28;19926;-60
2022/11/05 15:44:47;;;;;;;;;;;;;;;;;;4962296;28;20307;-60
2022/11/05 15:47:16;;;;;;;;;;;;;;;;;;4961169;28;19918;-59
2022/11/05 15:49:44;;;;;;;;;;;;;;;;;;4984672;28;19926;-59
2022/11/05 15:52:10;;;;;;;;;;;;;;;;;;4962031;28;19918;-59
2022/11/05 15:54:36;;;;;;;;;;;;;;;;;;4962029;28;19926;-58
2022/11/05 15:57:02;;;;;;;;;;;;;;;;;;4972294;28;20284;-59
2022/11/05 15:59:28;;;;;;;;;;;;;;;;;;4966185;28;20308;-59
2022/11/05 16:02:01;;;;;;;;;;;;;;;;;;4958019;28;19922;-59
2022/11/05 16:04:29;;;;;;;;;;;;;;;;;;4960183;28;19941;-59
2022/11/05 16:06:59;;;;;;;;;;;;;;;;;;4963433;28;19933;-59
2022/11/05 16:09:32;;;;;;;;;;;;;;;;;;4963000;28;19967;-59
2022/11/05 16:12:11;;;;;;;;;;;;;;;;;;4960518;28;19925;-59
2022/11/05 16:14:36;;;;;;;;;;;;;;;;;;4963458;28;19926;-59
2022/11/05 16:17:34;;;;;;;;;;;;;;;;;;4967746;28;20450;-59
2022/11/05 16:20:00;;;;;;;;;;;;;;;;;;5009802;28;19972;-58
2022/11/05 16:22:42;;;;;;;;;;;;;;;;;;4963547;28;19919;-58
2022/11/05 16:25:20;;;;;;;;;;;;;;;;;;4968648;28;19919;-59
2022/11/05 16:27:45;;;;;;;;;;;;;;;;;;4968933;28;20345;-60
2022/11/05 16:30:18;;;;;;;;;;;;;;;;;;4968195;28;19922;-59
2022/11/05 16:32:43;;;;;;;;;;;;;;;;;;4963981;28;19968;-60
2022/11/05 16:35:17;;;;;;;;;;;;;;;;;;4970672;28;19954;-60
2022/11/05 16:37:43;;;;;;;;;;;;;;;;;;4963034;28;19919;-59
2022/11/05 16:40:12;;;;;;;;;;;;;;;;;;4960683;28;19998;-60
2022/11/05 16:42:39;;;;;;;;;;;;;;;;;;4967390;28;19919;-60
2022/11/05 16:45:05;;;;;;;;;;;;;;;;;;4959397;28;19968;-60
2022/11/05 16:47:31;;;;;;;;;;;;;;;;;;4958757;28;20426;-60
2022/11/05 16:49:56;;;;;;;;;;;;;;;;;;4971110;28;19930;-60
2022/11/05 16:52:22;;;;;;;;;;;;;;;;;;4977066;28;20448;-60
2022/11/05 16:54:47;;;;;;;;;;;;;;;;;;4975863;28;19940;-59
2022/11/05 16:57:30;;;;;;;;;;;;;;;;;;4961914;28;19926;-59
2022/11/05 16:59:57;;;;;;;;;;;;;;;;;;4962680;28;19918;-60
2022/11/05 17:02:23;;;;;;;;;;;;;;;;;;4959624;28;20368;-56
2022/11/05 17:04:49;;;;;;;;;;;;;;;;;;4959555;28;19926;-60
2022/11/05 17:07:14;;;;;;;;;;;;;;;;;;4960631;28;19918;-60
2022/11/05 17:09:39;;;;;;;;;;;;;;;;;;4968624;28;19922;-60
2022/11/05 17:12:05;;;;;;;;;;;;;;;;;;4965531;28;19925;-60
2022/11/05 17:14:30;;;;;;;;;;;;;;;;;;4966445;28;19918;-60
2022/11/05 17:16:58;;;;;;;;;;;;;;;;;;4960821;28;19961;-60
2022/11/05 17:19:23;;;;;;;;;;;;;;;;;;4965444;28;20012;-59
2022/11/05 17:21:48;;;;;;;;;;;;;;;;;;4961535;28;20025;-59
2022/11/05 17:24:14;;;;;;;;;;;;;;;;;;4964072;28;20358;-60
2022/11/05 17:26:39;;;;;;;;;;;;;;;;;;4973453;28;19975;-60
2022/11/05 17:29:05;;;;;;;;;;;;;;;;;;4957962;28;19923;-59
2022/11/05 17:31:30;;;;;;;;;;;;;;;;;;4962509;28;19919;-60
2022/11/05 17:33:56;;;;;;;;;;;;;;;;;;4964963;28;19944;-60
2022/11/05 17:36:21;;;;;;;;;;;;;;;;;;4968694;28;20012;-60
2022/11/05 17:38:47;;;;;;;;;;;;;;;;;;4967520;28;20444;-60